sensor_id;sensor_type;location;lat;lon;timestamp;temperature;humidity
18412;DHT22;27097;51.738;19.472;2022-10-16T00:00:39;22.40;62.70
18412;DHT22;27097;51.738;19.472;2022-10-16T00:03:06;22.40;62.80
18412;DHT22;27097;51.738;19.472;2022-10-16T00:05:38;22.40;62.80
18412;DHT22;27097;51.738;19.472;2022-10-16T00:08:06;22.40;62.70
18412;DHT22;27097;51.738;19.472;2022-10-16T00:10:33;22.40;63.00
18412;DHT22;27097;51.738;19.472;2022-10-16T00:13:01;22.40;62.80
18412;DHT22;27097;51.738;19.472;2022-10-16T00:15:28;22.40;62.90
18412;DHT22;27097;51.738;19.472;2022-10-16T00:17:55;22.40;63.10
18412;DHT22;27097;51.738;19.472;2022-10-16T00:20:22;22.40;63.20
18412;DHT22;27097;51.738;19.472;2022-10-16T00:22:48;22.40;63.00
18412;DHT22;27097;51.738;19.472;2022-10-16T00:25:15;22.40;63.20
18412;DHT22;27097;51.738;19.472;2022-10-16T00:27:42;22.40;63.30
18412;DHT22;27097;51.738;19.472;2022-10-16T00:30:11;22.40;63.30
18412;DHT22;27097;51.738;19.472;2022-10-16T00:32:37;22.40;63.20
18412;DHT22;27097;51.738;19.472;2022-10-16T00:35:05;22.40;63.10
18412;DHT22;27097;51.738;19.472;2022-10-16T00:37:32;22.40;63.60
18412;DHT22;27097;51.738;19.472;2022-10-16T00:39:59;22.40;62.90
18412;DHT22;27097;51.738;19.472;2022-10-16T00:42:26;22.40;62.90
18412;DHT22;27097;51.738;19.472;2022-10-16T00:44:54;22.40;62.70
18412;DHT22;27097;51.738;19.472;2022-10-16T00:47:27;22.30;62.40
18412;DHT22;27097;51.738;19.472;2022-10-16T00:49:59;22.40;62.00
18412;DHT22;27097;51.738;19.472;2022-10-16T00:52:26;22.40;62.00
18412;DHT22;27097;51.738;19.472;2022-10-16T00:54:54;22.40;62.40
18412;DHT22;27097;51.738;19.472;2022-10-16T00:57:22;22.40;62.70
18412;DHT22;27097;51.738;19.472;2022-10-16T00:59:50;22.40;62.90
18412;DHT22;27097;51.738;19.472;2022-10-16T01:02:17;22.40;63.30
18412;DHT22;27097;51.738;19.472;2022-10-16T01:04:48;22.30;64.00
18412;DHT22;27097;51.738;19.472;2022-10-16T01:07:24;22.30;64.20
18412;DHT22;27097;51.738;19.472;2022-10-16T01:10:02;22.30;64.40
18412;DHT22;27097;51.738;19.472;2022-10-16T01:12:35;22.30;64.40
18412;DHT22;27097;51.738;19.472;2022-10-16T01:15:08;22.30;64.50
18412;DHT22;27097;51.738;19.472;2022-10-16T01:17:41;22.30;64.50
18412;DHT22;27097;51.738;19.472;2022-10-16T01:20:16;22.30;64.80
18412;DHT22;27097;51.738;19.472;2022-10-16T01:22:56;22.30;64.90
18412;DHT22;27097;51.738;19.472;2022-10-16T01:25:36;22.30;64.90
18412;DHT22;27097;51.738;19.472;2022-10-16T01:28:09;22.30;64.90
18412;DHT22;27097;51.738;19.472;2022-10-16T01:30:39;22.30;69.10
18412;DHT22;27097;51.738;19.472;2022-10-16T01:33:12;22.30;71.80
18412;DHT22;27097;51.738;19.472;2022-10-16T01:35:43;22.30;73.80
18412;DHT22;27097;51.738;19.472;2022-10-16T01:38:15;22.30;74.30
18412;DHT22;27097;51.738;19.472;2022-10-16T01:40:47;22.30;74.20
18412;DHT22;27097;51.738;19.472;2022-10-16T01:43:19;22.30;74.20
18412;DHT22;27097;51.738;19.472;2022-10-16T01:45:47;22.30;74.50
18412;DHT22;27097;51.738;19.472;2022-10-16T01:48:17;22.30;74.80
18412;DHT22;27097;51.738;19.472;2022-10-16T01:50:52;22.30;74.70
18412;DHT22;27097;51.738;19.472;2022-10-16T01:53:20;22.30;74.90
18412;DHT22;27097;51.738;19.472;2022-10-16T01:55:50;22.30;75.00
18412;DHT22;27097;51.738;19.472;2022-10-16T01:58:21;22.30;75.20
18412;DHT22;27097;51.738;19.472;2022-10-16T02:00:50;22.30;75.00
18412;DHT22;27097;51.738;19.472;2022-10-16T02:03:19;22.30;74.20
18412;DHT22;27097;51.738;19.472;2022-10-16T02:05:49;22.30;76.30
18412;DHT22;27097;51.738;19.472;2022-10-16T02:08:17;22.30;77.80
18412;DHT22;27097;51.738;19.472;2022-10-16T02:10:44;22.30;78.70
18412;DHT22;27097;51.738;19.472;2022-10-16T02:13:15;22.30;79.20
18412;DHT22;27097;51.738;19.472;2022-10-16T02:15:44;22.30;79.40
18412;DHT22;27097;51.738;19.472;2022-10-16T02:18:12;22.30;79.90
18412;DHT22;27097;51.738;19.472;2022-10-16T02:20:44;22.40;80.20
18412;DHT22;27097;51.738;19.472;2022-10-16T02:23:16;22.40;80.50
18412;DHT22;27097;51.738;19.472;2022-10-16T02:25:47;22.40;80.90
18412;DHT22;27097;51.738;19.472;2022-10-16T02:28:19;22.40;81.20
18412;DHT22;27097;51.738;19.472;2022-10-16T02:30:51;22.40;81.60
18412;DHT22;27097;51.738;19.472;2022-10-16T02:33:19;22.40;81.70
18412;DHT22;27097;51.738;19.472;2022-10-16T02:35:49;22.40;82.00
18412;DHT22;27097;51.738;19.472;2022-10-16T02:38:18;22.40;82.30
18412;DHT22;27097;51.738;19.472;2022-10-16T02:40:46;22.40;82.40
18412;DHT22;27097;51.738;19.472;2022-10-16T02:43:13;22.40;82.50
18412;DHT22;27097;51.738;19.472;2022-10-16T02:45:40;22.40;82.70
18412;DHT22;27097;51.738;19.472;2022-10-16T02:48:08;22.40;82.90
18412;DHT22;27097;51.738;19.472;2022-10-16T02:50:35;22.40;83.00
18412;DHT22;27097;51.738;19.472;2022-10-16T02:53:02;22.40;83.30
18412;DHT22;27097;51.738;19.472;2022-10-16T02:55:29;22.40;83.30
18412;DHT22;27097;51.738;19.472;2022-10-16T02:57:56;22.40;83.50
18412;DHT22;27097;51.738;19.472;2022-10-16T03:00:23;22.40;83.60
18412;DHT22;27097;51.738;19.472;2022-10-16T03:02:50;22.40;83.80
18412;DHT22;27097;51.738;19.472;2022-10-16T03:05:18;22.40;83.90
18412;DHT22;27097;51.738;19.472;2022-10-16T03:07:45;22.50;84.00
18412;DHT22;27097;51.738;19.472;2022-10-16T03:10:12;22.50;84.10
18412;DHT22;27097;51.738;19.472;2022-10-16T03:12:39;22.50;84.20
18412;DHT22;27097;51.738;19.472;2022-10-16T03:15:07;22.50;84.30
18412;DHT22;27097;51.738;19.472;2022-10-16T03:17:34;22.50;84.50
18412;DHT22;27097;51.738;19.472;2022-10-16T03:20:01;22.50;84.60
18412;DHT22;27097;51.738;19.472;2022-10-16T03:22:29;22.50;84.80
18412;DHT22;27097;51.738;19.472;2022-10-16T03:24:56;22.50;84.70
18412;DHT22;27097;51.738;19.472;2022-10-16T03:27:23;22.40;84.70
18412;DHT22;27097;51.738;19.472;2022-10-16T03:29:50;22.50;84.90
18412;DHT22;27097;51.738;19.472;2022-10-16T03:32:17;22.50;85.00
18412;DHT22;27097;51.738;19.472;2022-10-16T03:34:45;22.50;85.00
18412;DHT22;27097;51.738;19.472;2022-10-16T03:37:12;22.50;85.20
18412;DHT22;27097;51.738;19.472;2022-10-16T03:39:40;22.50;85.10
18412;DHT22;27097;51.738;19.472;2022-10-16T03:42:07;22.50;85.20
18412;DHT22;27097;51.738;19.472;2022-10-16T03:44:34;22.50;85.40
18412;DHT22;27097;51.738;19.472;2022-10-16T03:47:03;22.50;85.60
18412;DHT22;27097;51.738;19.472;2022-10-16T03:49:30;22.50;85.60
18412;DHT22;27097;51.738;19.472;2022-10-16T03:51:56;22.50;85.60
18412;DHT22;27097;51.738;19.472;2022-10-16T03:54:23;22.50;85.60
18412;DHT22;27097;51.738;19.472;2022-10-16T03:56:52;22.50;85.50
18412;DHT22;27097;51.738;19.472;2022-10-16T03:59:18;22.50;85.50
18412;DHT22;27097;51.738;19.472;2022-10-16T04:01:45;22.50;85.80
18412;DHT22;27097;51.738;19.472;2022-10-16T04:04:12;22.50;85.80
18412;DHT22;27097;51.738;19.472;2022-10-16T04:06:39;22.50;85.80
18412;DHT22;27097;51.738;19.472;2022-10-16T04:09:06;22.50;85.90
18412;DHT22;27097;51.738;19.472;2022-10-16T04:11:33;22.50;86.10
18412;DHT22;27097;51.738;19.472;2022-10-16T04:14:01;22.50;86.00
18412;DHT22;27097;51.738;19.472;2022-10-16T04:16:28;22.50;86.00
18412;DHT22;27097;51.738;19.472;2022-10-16T04:18:55;22.50;86.00
18412;DHT22;27097;51.738;19.472;2022-10-16T04:21:22;22.50;86.10
18412;DHT22;27097;51.738;19.472;2022-10-16T04:23:49;22.50;86.30
18412;DHT22;27097;51.738;19.472;2022-10-16T04:26:16;22.50;86.30
18412;DHT22;27097;51.738;19.472;2022-10-16T04:28:43;22.50;86.10
18412;DHT22;27097;51.738;19.472;2022-10-16T04:31:11;22.50;86.30
18412;DHT22;27097;51.738;19.472;2022-10-16T04:33:38;22.50;86.40
18412;DHT22;27097;51.738;19.472;2022-10-16T04:36:08;22.50;86.40
18412;DHT22;27097;51.738;19.472;2022-10-16T04:38:35;22.50;86.50
18412;DHT22;27097;51.738;19.472;2022-10-16T04:41:03;22.50;86.50
18412;DHT22;27097;51.738;19.472;2022-10-16T04:43:30;22.50;86.60
18412;DHT22;27097;51.738;19.472;2022-10-16T04:45:56;22.50;86.60
18412;DHT22;27097;51.738;19.472;2022-10-16T04:48:25;22.50;86.60
18412;DHT22;27097;51.738;19.472;2022-10-16T04:50:52;22.50;86.80
18412;DHT22;27097;51.738;19.472;2022-10-16T04:53:19;22.50;86.80
18412;DHT22;27097;51.738;19.472;2022-10-16T04:55:46;22.50;86.90
18412;DHT22;27097;51.738;19.472;2022-10-16T04:58:12;22.50;87.00
18412;DHT22;27097;51.738;19.472;2022-10-16T05:00:39;22.50;87.00
18412;DHT22;27097;51.738;19.472;2022-10-16T05:03:06;22.50;87.10
18412;DHT22;27097;51.738;19.472;2022-10-16T05:05:36;22.50;87.20
18412;DHT22;27097;51.738;19.472;2022-10-16T05:08:03;22.50;87.20
18412;DHT22;27097;51.738;19.472;2022-10-16T05:10:30;22.50;87.30
18412;DHT22;27097;51.738;19.472;2022-10-16T05:12:57;22.50;87.40
18412;DHT22;27097;51.738;19.472;2022-10-16T05:15:24;22.50;87.50
18412;DHT22;27097;51.738;19.472;2022-10-16T05:17:53;22.50;87.50
18412;DHT22;27097;51.738;19.472;2022-10-16T05:20:20;22.50;87.60
18412;DHT22;27097;51.738;19.472;2022-10-16T05:22:48;22.50;87.70
18412;DHT22;27097;51.738;19.472;2022-10-16T05:25:15;22.50;87.80
18412;DHT22;27097;51.738;19.472;2022-10-16T05:27:42;22.50;88.50
18412;DHT22;27097;51.738;19.472;2022-10-16T05:30:10;22.50;87.80
18412;DHT22;27097;51.738;19.472;2022-10-16T05:32:37;22.50;87.80
18412;DHT22;27097;51.738;19.472;2022-10-16T05:35:04;22.50;88.00
18412;DHT22;27097;51.738;19.472;2022-10-16T05:37:32;22.60;88.10
18412;DHT22;27097;51.738;19.472;2022-10-16T05:40:00;22.60;88.20
18412;DHT22;27097;51.738;19.472;2022-10-16T05:42:30;22.50;88.20
18412;DHT22;27097;51.738;19.472;2022-10-16T05:44:57;22.60;88.30
18412;DHT22;27097;51.738;19.472;2022-10-16T05:47:24;22.50;88.40
18412;DHT22;27097;51.738;19.472;2022-10-16T05:49:51;22.60;88.60
18412;DHT22;27097;51.738;19.472;2022-10-16T05:52:17;22.60;88.70
18412;DHT22;27097;51.738;19.472;2022-10-16T05:54:44;22.60;88.70
18412;DHT22;27097;51.738;19.472;2022-10-16T05:57:13;22.60;88.80
18412;DHT22;27097;51.738;19.472;2022-10-16T05:59:39;22.50;88.90
18412;DHT22;27097;51.738;19.472;2022-10-16T06:02:09;22.50;83.70
18412;DHT22;27097;51.738;19.472;2022-10-16T06:04:38;22.60;83.30
18412;DHT22;27097;51.738;19.472;2022-10-16T06:07:05;22.50;83.20
18412;DHT22;27097;51.738;19.472;2022-10-16T06:09:32;22.60;82.90
18412;DHT22;27097;51.738;19.472;2022-10-16T06:11:59;22.50;82.30
18412;DHT22;27097;51.738;19.472;2022-10-16T06:14:27;22.50;81.70
18412;DHT22;27097;51.738;19.472;2022-10-16T06:16:54;22.50;81.40
18412;DHT22;27097;51.738;19.472;2022-10-16T06:19:21;22.50;81.20
18412;DHT22;27097;51.738;19.472;2022-10-16T06:21:48;22.50;82.50
18412;DHT22;27097;51.738;19.472;2022-10-16T06:24:15;22.50;86.00
18412;DHT22;27097;51.738;19.472;2022-10-16T06:26:42;22.60;86.70
18412;DHT22;27097;51.738;19.472;2022-10-16T06:29:09;22.60;86.80
18412;DHT22;27097;51.738;19.472;2022-10-16T06:31:37;22.70;86.80
18412;DHT22;27097;51.738;19.472;2022-10-16T06:34:04;22.70;86.60
18412;DHT22;27097;51.738;19.472;2022-10-16T06:36:34;22.70;86.40
18412;DHT22;27097;51.738;19.472;2022-10-16T06:39:01;22.70;86.40
18412;DHT22;27097;51.738;19.472;2022-10-16T06:41:29;22.80;86.40
18412;DHT22;27097;51.738;19.472;2022-10-16T06:43:55;22.80;86.50
18412;DHT22;27097;51.738;19.472;2022-10-16T06:46:23;22.80;86.50
18412;DHT22;27097;51.738;19.472;2022-10-16T06:48:52;22.80;86.30
18412;DHT22;27097;51.738;19.472;2022-10-16T06:51:20;22.90;86.20
18412;DHT22;27097;51.738;19.472;2022-10-16T06:53:50;22.90;85.90
18412;DHT22;27097;51.738;19.472;2022-10-16T06:56:19;23.00;85.40
18412;DHT22;27097;51.738;19.472;2022-10-16T06:58:47;23.00;85.60
18412;DHT22;27097;51.738;19.472;2022-10-16T07:01:16;23.00;85.60
18412;DHT22;27097;51.738;19.472;2022-10-16T07:03:44;23.00;90.00
18412;DHT22;27097;51.738;19.472;2022-10-16T07:06:15;23.10;91.90
18412;DHT22;27097;51.738;19.472;2022-10-16T07:08:45;23.10;92.20
18412;DHT22;27097;51.738;19.472;2022-10-16T07:11:14;23.00;92.90
18412;DHT22;27097;51.738;19.472;2022-10-16T07:13:42;23.00;93.00
18412;DHT22;27097;51.738;19.472;2022-10-16T07:16:12;23.00;93.50
18412;DHT22;27097;51.738;19.472;2022-10-16T07:18:39;23.00;93.90
18412;DHT22;27097;51.738;19.472;2022-10-16T07:21:09;23.00;93.50
18412;DHT22;27097;51.738;19.472;2022-10-16T07:23:38;23.00;93.20
18412;DHT22;27097;51.738;19.472;2022-10-16T07:26:05;23.00;92.50
18412;DHT22;27097;51.738;19.472;2022-10-16T07:28:33;23.00;92.10
18412;DHT22;27097;51.738;19.472;2022-10-16T07:31:01;23.00;91.40
18412;DHT22;27097;51.738;19.472;2022-10-16T07:33:29;23.00;91.30
18412;DHT22;27097;51.738;19.472;2022-10-16T07:35:56;23.10;90.70
18412;DHT22;27097;51.738;19.472;2022-10-16T07:38:23;23.10;90.60
18412;DHT22;27097;51.738;19.472;2022-10-16T07:40:57;23.10;90.00
18412;DHT22;27097;51.738;19.472;2022-10-16T07:43:25;23.10;89.20
18412;DHT22;27097;51.738;19.472;2022-10-16T07:45:52;23.20;88.40
18412;DHT22;27097;51.738;19.472;2022-10-16T07:48:20;23.20;87.60
18412;DHT22;27097;51.738;19.472;2022-10-16T07:50:47;23.20;87.00
18412;DHT22;27097;51.738;19.472;2022-10-16T07:53:14;23.20;86.50
18412;DHT22;27097;51.738;19.472;2022-10-16T07:55:44;23.20;85.30
18412;DHT22;27097;51.738;19.472;2022-10-16T07:58:12;23.30;85.00
18412;DHT22;27097;51.738;19.472;2022-10-16T08:00:39;23.30;84.50
18412;DHT22;27097;51.738;19.472;2022-10-16T08:03:06;23.30;83.80
18412;DHT22;27097;51.738;19.472;2022-10-16T08:05:33;23.30;83.50
18412;DHT22;27097;51.738;19.472;2022-10-16T08:08:01;23.30;82.80
18412;DHT22;27097;51.738;19.472;2022-10-16T08:10:29;23.30;82.90
18412;DHT22;27097;51.738;19.472;2022-10-16T08:12:57;23.30;82.20
18412;DHT22;27097;51.738;19.472;2022-10-16T08:15:25;23.30;82.20
18412;DHT22;27097;51.738;19.472;2022-10-16T08:17:57;23.30;82.60
18412;DHT22;27097;51.738;19.472;2022-10-16T08:20:24;23.30;82.80
18412;DHT22;27097;51.738;19.472;2022-10-16T08:22:51;23.30;82.50
18412;DHT22;27097;51.738;19.472;2022-10-16T08:25:19;23.30;82.10
18412;DHT22;27097;51.738;19.472;2022-10-16T08:27:46;23.30;80.40
18412;DHT22;27097;51.738;19.472;2022-10-16T08:30:13;23.30;81.20
18412;DHT22;27097;51.738;19.472;2022-10-16T08:32:42;23.30;81.20
18412;DHT22;27097;51.738;19.472;2022-10-16T08:35:09;23.30;81.20
18412;DHT22;27097;51.738;19.472;2022-10-16T08:37:36;23.30;80.90
18412;DHT22;27097;51.738;19.472;2022-10-16T08:40:05;23.30;80.30
18412;DHT22;27097;51.738;19.472;2022-10-16T08:42:45;23.30;79.70
18412;DHT22;27097;51.738;19.472;2022-10-16T08:45:41;23.30;81.80
18412;DHT22;27097;51.738;19.472;2022-10-16T08:48:18;23.30;82.40
18412;DHT22;27097;51.738;19.472;2022-10-16T08:50:48;23.30;81.80
18412;DHT22;27097;51.738;19.472;2022-10-16T08:53:19;23.30;79.80
18412;DHT22;27097;51.738;19.472;2022-10-16T08:55:50;23.30;80.60
18412;DHT22;27097;51.738;19.472;2022-10-16T08:58:18;23.30;80.70
18412;DHT22;27097;51.738;19.472;2022-10-16T09:00:48;23.30;77.40
18412;DHT22;27097;51.738;19.472;2022-10-16T09:03:29;23.30;77.00
18412;DHT22;27097;51.738;19.472;2022-10-16T09:06:20;23.30;76.70
18412;DHT22;27097;51.738;19.472;2022-10-16T09:09:01;23.20;80.30
18412;DHT22;27097;51.738;19.472;2022-10-16T09:11:41;23.30;78.60
18412;DHT22;27097;51.738;19.472;2022-10-16T09:14:23;23.20;77.30
18412;DHT22;27097;51.738;19.472;2022-10-16T09:16:56;23.20;79.50
18412;DHT22;27097;51.738;19.472;2022-10-16T09:19:29;23.30;81.60
18412;DHT22;27097;51.738;19.472;2022-10-16T09:21:59;23.30;81.10
18412;DHT22;27097;51.738;19.472;2022-10-16T09:24:30;23.30;80.70
18412;DHT22;27097;51.738;19.472;2022-10-16T09:26:57;23.40;80.40
18412;DHT22;27097;51.738;19.472;2022-10-16T09:29:24;23.40;80.10
18412;DHT22;27097;51.738;19.472;2022-10-16T09:31:52;23.40;79.90
18412;DHT22;27097;51.738;19.472;2022-10-16T09:34:27;23.50;79.80
18412;DHT22;27097;51.738;19.472;2022-10-16T09:36:58;23.50;79.80
18412;DHT22;27097;51.738;19.472;2022-10-16T09:39:25;23.50;79.70
18412;DHT22;27097;51.738;19.472;2022-10-16T09:41:52;23.50;79.70
18412;DHT22;27097;51.738;19.472;2022-10-16T09:44:24;23.50;79.60
18412;DHT22;27097;51.738;19.472;2022-10-16T09:47:01;23.50;79.60
18412;DHT22;27097;51.738;19.472;2022-10-16T09:49:30;23.60;80.00
18412;DHT22;27097;51.738;19.472;2022-10-16T09:52:04;23.60;79.50
18412;DHT22;27097;51.738;19.472;2022-10-16T09:54:31;23.60;79.50
18412;DHT22;27097;51.738;19.472;2022-10-16T09:57:05;23.60;79.40
18412;DHT22;27097;51.738;19.472;2022-10-16T09:59:33;23.60;79.40
18412;DHT22;27097;51.738;19.472;2022-10-16T10:02:10;23.60;79.40
18412;DHT22;27097;51.738;19.472;2022-10-16T10:04:41;23.60;79.60
18412;DHT22;27097;51.738;19.472;2022-10-16T10:07:18;23.70;80.20
18412;DHT22;27097;51.738;19.472;2022-10-16T10:09:46;23.70;80.50
18412;DHT22;27097;51.738;19.472;2022-10-16T10:12:21;23.70;80.60
18412;DHT22;27097;51.738;19.472;2022-10-16T10:14:49;23.70;80.70
18412;DHT22;27097;51.738;19.472;2022-10-16T10:17:21;23.70;80.80
18412;DHT22;27097;51.738;19.472;2022-10-16T10:19:51;23.70;80.90
18412;DHT22;27097;51.738;19.472;2022-10-16T10:22:26;23.70;80.90
18412;DHT22;27097;51.738;19.472;2022-10-16T10:25:16;23.70;80.90
18412;DHT22;27097;51.738;19.472;2022-10-16T10:28:08;23.70;81.00
18412;DHT22;27097;51.738;19.472;2022-10-16T10:30:42;23.70;81.00
18412;DHT22;27097;51.738;19.472;2022-10-16T10:33:21;23.70;81.10
18412;DHT22;27097;51.738;19.472;2022-10-16T10:36:01;23.70;81.10
18412;DHT22;27097;51.738;19.472;2022-10-16T10:38:39;23.70;81.20
18412;DHT22;27097;51.738;19.472;2022-10-16T10:41:23;23.70;81.30
18412;DHT22;27097;51.738;19.472;2022-10-16T10:44:01;23.70;81.30
18412;DHT22;27097;51.738;19.472;2022-10-16T10:46:35;23.70;81.40
18412;DHT22;27097;51.738;19.472;2022-10-16T10:49:13;23.70;81.40
18412;DHT22;27097;51.738;19.472;2022-10-16T10:51:52;23.70;81.50
18412;DHT22;27097;51.738;19.472;2022-10-16T10:54:28;23.70;81.50
18412;DHT22;27097;51.738;19.472;2022-10-16T10:57:02;23.70;81.50
18412;DHT22;27097;51.738;19.472;2022-10-16T11:00:02;23.70;81.40
18412;DHT22;27097;51.738;19.472;2022-10-16T11:02:35;23.70;81.40
18412;DHT22;27097;51.738;19.472;2022-10-16T11:05:26;23.70;81.30
18412;DHT22;27097;51.738;19.472;2022-10-16T11:07:58;23.70;81.10
18412;DHT22;27097;51.738;19.472;2022-10-16T11:10:29;23.70;81.10
18412;DHT22;27097;51.738;19.472;2022-10-16T11:13:00;23.70;81.10
18412;DHT22;27097;51.738;19.472;2022-10-16T11:15:36;23.70;81.10
18412;DHT22;27097;51.738;19.472;2022-10-16T11:18:08;23.80;81.30
18412;DHT22;27097;51.738;19.472;2022-10-16T11:20:41;23.80;81.30
18412;DHT22;27097;51.738;19.472;2022-10-16T11:23:16;23.80;81.40
18412;DHT22;27097;51.738;19.472;2022-10-16T11:25:45;23.80;81.70
18412;DHT22;27097;51.738;19.472;2022-10-16T11:28:18;23.80;81.90
18412;DHT22;27097;51.738;19.472;2022-10-16T11:30:50;23.80;82.00
18412;DHT22;27097;51.738;19.472;2022-10-16T11:33:27;23.70;82.10
18412;DHT22;27097;51.738;19.472;2022-10-16T11:36:03;23.70;82.10
18412;DHT22;27097;51.738;19.472;2022-10-16T11:38:37;23.70;82.20
18412;DHT22;27097;51.738;19.472;2022-10-16T11:41:13;23.70;82.30
18412;DHT22;27097;51.738;19.472;2022-10-16T11:43:48;23.70;82.40
18412;DHT22;27097;51.738;19.472;2022-10-16T11:46:19;23.70;82.40
18412;DHT22;27097;51.738;19.472;2022-10-16T11:48:49;23.70;82.40
18412;DHT22;27097;51.738;19.472;2022-10-16T11:51:24;23.70;82.40
18412;DHT22;27097;51.738;19.472;2022-10-16T11:53:57;23.70;82.50
18412;DHT22;27097;51.738;19.472;2022-10-16T11:56:26;23.70;82.30
18412;DHT22;27097;51.738;19.472;2022-10-16T11:58:56;23.70;82.20
18412;DHT22;27097;51.738;19.472;2022-10-16T12:01:29;23.70;81.90
18412;DHT22;27097;51.738;19.472;2022-10-16T12:04:14;23.70;81.60
18412;DHT22;27097;51.738;19.472;2022-10-16T12:06:46;23.80;81.30
18412;DHT22;27097;51.738;19.472;2022-10-16T12:09:22;23.80;81.10
18412;DHT22;27097;51.738;19.472;2022-10-16T12:11:49;23.80;80.80
18412;DHT22;27097;51.738;19.472;2022-10-16T12:14:32;23.80;80.60
18412;DHT22;27097;51.738;19.472;2022-10-16T12:17:01;23.80;80.40
18412;DHT22;27097;51.738;19.472;2022-10-16T12:19:31;23.80;80.20
18412;DHT22;27097;51.738;19.472;2022-10-16T12:21:59;23.80;79.90
18412;DHT22;27097;51.738;19.472;2022-10-16T12:24:36;23.90;79.80
18412;DHT22;27097;51.738;19.472;2022-10-16T12:27:17;23.90;79.60
18412;DHT22;27097;51.738;19.472;2022-10-16T12:29:46;23.90;79.40
18412;DHT22;27097;51.738;19.472;2022-10-16T12:32:24;23.90;79.20
18412;DHT22;27097;51.738;19.472;2022-10-16T12:34:53;23.90;79.10
18412;DHT22;27097;51.738;19.472;2022-10-16T12:37:22;23.90;78.90
18412;DHT22;27097;51.738;19.472;2022-10-16T12:39:52;23.90;78.80
18412;DHT22;27097;51.738;19.472;2022-10-16T12:42:32;23.90;78.70
18412;DHT22;27097;51.738;19.472;2022-10-16T12:45:00;23.90;78.70
18412;DHT22;27097;51.738;19.472;2022-10-16T12:47:47;23.90;78.50
18412;DHT22;27097;51.738;19.472;2022-10-16T12:50:30;23.90;78.40
18412;DHT22;27097;51.738;19.472;2022-10-16T12:52:58;23.90;78.40
18412;DHT22;27097;51.738;19.472;2022-10-16T12:55:34;23.90;78.40
18412;DHT22;27097;51.738;19.472;2022-10-16T12:58:31;23.90;78.30
18412;DHT22;27097;51.738;19.472;2022-10-16T13:01:07;23.90;78.10
18412;DHT22;27097;51.738;19.472;2022-10-16T13:06:45;23.90;78.00
18412;DHT22;27097;51.738;19.472;2022-10-16T13:09:36;24.00;78.00
18412;DHT22;27097;51.738;19.472;2022-10-16T13:12:23;23.90;77.90
18412;DHT22;27097;51.738;19.472;2022-10-16T13:15:08;23.90;77.90
18412;DHT22;27097;51.738;19.472;2022-10-16T13:17:45;23.90;77.80
18412;DHT22;27097;51.738;19.472;2022-10-16T13:20:21;23.90;77.70
18412;DHT22;27097;51.738;19.472;2022-10-16T13:22:56;23.90;77.60
18412;DHT22;27097;51.738;19.472;2022-10-16T13:25:31;23.90;77.50
18412;DHT22;27097;51.738;19.472;2022-10-16T13:28:04;23.90;77.50
18412;DHT22;27097;51.738;19.472;2022-10-16T13:30:36;23.90;77.40
18412;DHT22;27097;51.738;19.472;2022-10-16T13:33:06;23.90;77.40
18412;DHT22;27097;51.738;19.472;2022-10-16T13:35:35;23.90;77.30
18412;DHT22;27097;51.738;19.472;2022-10-16T13:38:12;24.00;77.40
18412;DHT22;27097;51.738;19.472;2022-10-16T13:40:49;23.90;77.10
18412;DHT22;27097;51.738;19.472;2022-10-16T13:43:19;24.00;77.30
18412;DHT22;27097;51.738;19.472;2022-10-16T13:45:58;24.00;77.50
18412;DHT22;27097;51.738;19.472;2022-10-16T13:48:25;24.00;77.10
18412;DHT22;27097;51.738;19.472;2022-10-16T13:50:59;23.90;77.00
18412;DHT22;27097;51.738;19.472;2022-10-16T13:53:26;24.00;77.00
18412;DHT22;27097;51.738;19.472;2022-10-16T13:55:53;23.90;76.90
18412;DHT22;27097;51.738;19.472;2022-10-16T13:58:21;23.90;76.80
18412;DHT22;27097;51.738;19.472;2022-10-16T14:00:56;23.90;76.80
18412;DHT22;27097;51.738;19.472;2022-10-16T14:03:24;23.90;76.70
18412;DHT22;27097;51.738;19.472;2022-10-16T14:05:53;23.90;76.70
18412;DHT22;27097;51.738;19.472;2022-10-16T14:08:21;23.90;76.70
18412;DHT22;27097;51.738;19.472;2022-10-16T14:10:50;23.90;76.60
18412;DHT22;27097;51.738;19.472;2022-10-16T14:13:19;23.90;76.60
18412;DHT22;27097;51.738;19.472;2022-10-16T14:15:49;23.90;76.50
18412;DHT22;27097;51.738;19.472;2022-10-16T14:18:20;23.90;76.50
18412;DHT22;27097;51.738;19.472;2022-10-16T14:20:48;23.90;76.60
18412;DHT22;27097;51.738;19.472;2022-10-16T14:23:21;23.90;76.50
18412;DHT22;27097;51.738;19.472;2022-10-16T14:25:48;23.90;76.60
18412;DHT22;27097;51.738;19.472;2022-10-16T14:28:17;23.90;76.50
18412;DHT22;27097;51.738;19.472;2022-10-16T14:30:53;23.90;76.50
18412;DHT22;27097;51.738;19.472;2022-10-16T14:33:23;23.90;76.50
18412;DHT22;27097;51.738;19.472;2022-10-16T14:36:02;23.90;76.50
18412;DHT22;27097;51.738;19.472;2022-10-16T14:38:32;23.90;76.50
18412;DHT22;27097;51.738;19.472;2022-10-16T14:40:59;23.90;76.50
18412;DHT22;27097;51.738;19.472;2022-10-16T14:43:32;23.90;76.50
18412;DHT22;27097;51.738;19.472;2022-10-16T14:46:03;23.90;76.50
18412;DHT22;27097;51.738;19.472;2022-10-16T14:48:30;23.90;76.50
18412;DHT22;27097;51.738;19.472;2022-10-16T14:50:57;23.90;76.40
18412;DHT22;27097;51.738;19.472;2022-10-16T14:53:24;23.90;76.50
18412;DHT22;27097;51.738;19.472;2022-10-16T14:55:51;23.90;76.50
18412;DHT22;27097;51.738;19.472;2022-10-16T14:58:20;23.90;76.50
18412;DHT22;27097;51.738;19.472;2022-10-16T15:00:48;23.90;76.50
18412;DHT22;27097;51.738;19.472;2022-10-16T15:03:16;23.80;76.50
18412;DHT22;27097;51.738;19.472;2022-10-16T15:05:43;23.80;76.40
18412;DHT22;27097;51.738;19.472;2022-10-16T15:08:10;23.90;76.50
18412;DHT22;27097;51.738;19.472;2022-10-16T15:10:40;23.80;76.40
18412;DHT22;27097;51.738;19.472;2022-10-16T15:13:11;23.80;76.40
18412;DHT22;27097;51.738;19.472;2022-10-16T15:15:42;23.80;76.50
18412;DHT22;27097;51.738;19.472;2022-10-16T15:18:09;23.80;76.40
18412;DHT22;27097;51.738;19.472;2022-10-16T15:20:38;23.80;76.50
18412;DHT22;27097;51.738;19.472;2022-10-16T15:23:10;23.80;76.40
18412;DHT22;27097;51.738;19.472;2022-10-16T15:25:42;23.80;76.30
18412;DHT22;27097;51.738;19.472;2022-10-16T15:28:09;23.80;76.30
18412;DHT22;27097;51.738;19.472;2022-10-16T15:30:37;23.80;76.30
18412;DHT22;27097;51.738;19.472;2022-10-16T15:33:05;23.80;76.30
18412;DHT22;27097;51.738;19.472;2022-10-16T15:35:37;23.80;76.30
18412;DHT22;27097;51.738;19.472;2022-10-16T15:38:04;23.80;76.30